createdAt,value
2022-08-22T00:02:48.063Z,101461.63
2022-08-22T00:03:49.874Z,101488.59
2022-08-22T00:14:19.334Z,101492.50
2022-08-22T00:24:47.880Z,101484.56
2022-08-22T00:35:29.429Z,101484.72
2022-08-22T00:46:01.857Z,101488.34
2022-08-22T00:56:48.472Z,101490.56
2022-08-22T01:07:18.963Z,101481.09
2022-08-22T01:18:02.338Z,101482.38
2022-08-22T01:29:02.480Z,101492.53
2022-08-22T01:39:48.539Z,101496.69
2022-08-22T01:50:22.908Z,101495.84
2022-08-22T02:01:33.944Z,101504.44
2022-08-22T02:12:21.475Z,101496.09
2022-08-22T02:22:59.753Z,101504.56
2022-08-22T02:33:46.184Z,101489.63
2022-08-22T02:44:28.558Z,101487.94
2022-08-22T02:55:05.416Z,101494.75
2022-08-22T03:05:37.659Z,101489.56
2022-08-22T03:16:09.374Z,101486.22
2022-08-22T03:26:43.854Z,101482.06
2022-08-22T03:37:35.756Z,101477.03
2022-08-22T03:48:06.754Z,101479.72
2022-08-22T03:58:55.613Z,101492.47
2022-08-22T04:09:29.470Z,101505.66
2022-08-22T04:20:13.080Z,101499.94
2022-08-22T04:30:47.175Z,101502.78
2022-08-22T04:41:24.819Z,101501.34
2022-08-22T04:51:57.708Z,101512.69
2022-08-22T05:02:24.940Z,101515.97
2022-08-22T05:12:56.487Z,101515.38
2022-08-22T05:23:24.363Z,101517.38
2022-08-22T05:33:50.836Z,101515.00
2022-08-22T05:44:27.010Z,101523.25
2022-08-22T05:55:01.093Z,101532.78
2022-08-22T06:05:29.286Z,101538.38
2022-08-22T06:16:37.236Z,101546.09
2022-08-22T06:27:07.514Z,101555.00
2022-08-22T06:37:40.578Z,101554.03
2022-08-22T06:48:05.388Z,101563.53
2022-08-22T06:58:34.140Z,101562.41
2022-08-22T07:08:56.462Z,101569.38
2022-08-22T07:19:36.895Z,101573.28
2022-08-22T07:30:27.564Z,101572.75
2022-08-22T07:41:08.700Z,101578.47
2022-08-22T07:51:55.246Z,101578.56
2022-08-22T08:02:19.041Z,101578.72
2022-08-22T08:12:52.800Z,101571.69
2022-08-22T08:23:26.558Z,101552.69
2022-08-22T08:33:51.080Z,101546.09
2022-08-22T08:44:29.122Z,101539.06
2022-08-22T09:06:21.975Z,101538.72
2022-08-22T09:17:15.726Z,101528.97
2022-08-22T09:27:46.069Z,101517.66
2022-08-22T09:38:29.414Z,101519.94
2022-08-22T09:49:16.440Z,101515.91
2022-08-22T10:00:13.662Z,101501.09
2022-08-22T10:10:53.645Z,101504.59
2022-08-22T10:21:35.374Z,101499.66
2022-08-22T10:32:15.719Z,101498.06
2022-08-22T10:42:53.795Z,101490.06
2022-08-22T10:53:30.463Z,101491.66
2022-08-22T11:04:04.282Z,101482.47
2022-08-22T11:14:32.165Z,101478.81
2022-08-22T11:25:29.212Z,101474.47
2022-08-22T11:36:18.688Z,101474.81
2022-08-22T11:46:51.242Z,101470.81
2022-08-22T11:57:18.605Z,101467.50
2022-08-22T12:07:53.379Z,101466.47
2022-08-22T12:18:27.316Z,101460.06
2022-08-22T12:29:01.369Z,101449.38
2022-08-22T12:39:54.019Z,101434.03
2022-08-22T12:50:38.345Z,101424.56
2022-08-22T13:01:04.550Z,101422.09
2022-08-22T13:11:36.015Z,101407.03
2022-08-22T13:22:03.628Z,101402.88
2022-08-22T13:32:36.388Z,101392.28
2022-08-22T13:43:11.193Z,101385.47
2022-08-22T13:54:12.442Z,101409.06
2022-08-22T14:04:40.485Z,101383.03
2022-08-22T14:15:06.681Z,101370.03
2022-08-22T14:25:33.863Z,101367.03
2022-08-22T14:36:00.438Z,101365.03
2022-08-22T14:46:50.148Z,101353.59
2022-08-22T14:57:18.503Z,101356.44
2022-08-22T15:07:42.954Z,101342.91
2022-08-22T15:18:17.606Z,101338.06
2022-08-22T15:28:53.171Z,101328.84
2022-08-22T15:39:32.873Z,101325.13
2022-08-22T15:50:00.401Z,101312.31
2022-08-22T16:00:32.760Z,101312.16
2022-08-22T16:11:15.501Z,101298.72
2022-08-22T16:21:40.027Z,101300.94
2022-08-22T16:32:05.155Z,101300.94
2022-08-22T16:42:46.617Z,101288.44
2022-08-22T16:53:33.148Z,101290.81
2022-08-22T17:04:04.027Z,101288.34
2022-08-22T17:14:54.772Z,101289.66
2022-08-22T17:25:22.762Z,101290.72
2022-08-22T17:36:26.597Z,101288.72
2022-08-22T17:46:55.423Z,101294.34
2022-08-22T17:57:44.328Z,101299.75
2022-08-22T18:19:24.229Z,101314.63
2022-08-22T18:30:15.563Z,101325.34
2022-08-22T18:40:46.932Z,101320.03
2022-08-22T18:51:28.129Z,101315.03
2022-08-22T19:02:11.514Z,101322.06
2022-08-22T19:12:53.749Z,101330.72
2022-08-22T19:23:37.506Z,101340.56
2022-08-22T19:34:19.347Z,101336.56
2022-08-22T19:44:43.868Z,101330.06
2022-08-22T19:55:39.407Z,101327.22
2022-08-22T20:06:43.592Z,101327.41
2022-08-22T20:17:43.380Z,101326.38
2022-08-22T20:28:08.547Z,101318.06
2022-08-22T20:38:41.989Z,101308.75
2022-08-22T20:49:20.597Z,101306.59
2022-08-22T20:59:59.589Z,101297.50
2022-08-22T21:10:41.267Z,101315.59
2022-08-22T21:21:17.942Z,101311.91
2022-08-22T21:32:11.294Z,101305.53
2022-08-22T21:42:39.265Z,101310.75
2022-08-22T21:53:10.088Z,101310.22
2022-08-22T22:03:38.418Z,101297.34
2022-08-22T22:14:00.104Z,101298.78
2022-08-22T22:24:21.678Z,101314.81
2022-08-22T22:34:43.421Z,101312.84
2022-08-22T22:45:06.160Z,101308.25
2022-08-22T22:55:27.694Z,101310.16
2022-08-22T23:05:49.405Z,101308.97
2022-08-22T23:16:14.049Z,101315.56
2022-08-22T23:26:36.691Z,101314.56
2022-08-22T23:36:59.954Z,101322.06
2022-08-22T23:47:21.603Z,101319.72
2022-08-22T23:57:43.117Z,101321.16
